Latest Weather Observations for Shark Bay Airport

IDW60801

Issued at 5:02 pm WST Wednesday 19 June 2019 (issued every 10 minutes, with the page automatically refreshed every 10 minutes)

About weather observations | Map of weather stations | Latest weather observations for WA | Other Formats
Station Details ID: 006105 Name: SHARK BAY AIRPORT Lat: -25.89 Lon: 113.58 Height: 33.8 m
Data from the previous 72 hours. | See also: Recent months at Shark Bay Airport
Date/Time
WST
Temp
°C
App
Temp
°C
Dew
Point
°C
Rel
Hum
%
Delta-T
°C
Wind Press
QNH
hPa
Press
MSL
hPa
Rain since
9am
mm
Dir  Spd
km/h
Gust
km/h
Spd
kts
Gust
kts
19/05:00pm 20.1 17.4 9.1 49 5.8 SW 13 17 7 9 1014.7 1014.7 0.0
19/04:30pm 23.0 19.1 3.5 28 9.4 SE 13 19 7 10 1014.6 1014.6 0.0
19/04:00pm 23.3 19.5 3.8 28 9.5 ESE 13 19 7 10 1014.6 1014.6 0.0
19/03:30pm 23.6 19.7 3.5 27 9.8 SE 13 19 7 10 1014.6 1014.6 0.0
19/03:00pm 23.8 20.0 3.7 27 9.8 ESE 13 19 7 10 1014.6 1014.6 0.0
19/02:30pm 23.5 20.2 4.5 29 9.4 SE 11 15 6 8 1014.8 1014.8 0.0
19/02:00pm 23.5 20.3 4.9 30 9.3 E 11 17 6 9 1014.8 1014.8 0.0
19/01:30pm 22.8 19.3 5.3 32 8.8 ESE 13 19 7 10 1015.0 1015.0 0.0
19/01:00pm 22.9 19.4 5.3 32 8.8 ENE 13 20 7 11 1015.5 1015.5 0.0
19/12:30pm 21.8 17.5 5.3 34 8.2 E 17 20 9 11 1015.9 1015.9 0.0
19/12:00pm 20.7 16.4 5.1 36 7.7 E 17 26 9 14 1016.5 1016.5 0.0
19/11:30am 20.7 16.2 6.3 39 7.2 E 19 26 10 14 1016.9 1016.9 0.0
19/11:00am 19.6 15.2 6.4 42 6.6 E 19 24 10 13 1017.4 1017.4 0.0
19/10:30am 18.5 13.5 6.4 45 6.0 ESE 22 30 12 16 1018.0 1018.0 0.0
19/10:00am 17.9 13.3 6.4 47 5.7 E 20 26 11 14 1018.3 1018.3 0.0
19/09:30am 16.9 11.5 6.4 50 5.2 E 24 30 13 16 1018.4 1018.4 0.0
19/09:00am 16.1 10.9 7.1 55 4.4 ESE 24 33 13 18 1018.2 1018.2 0.0
19/08:30am 14.6 10.7 8.8 68 2.9 ESE 19 28 10 15 1018.4 1018.4 0.0
19/08:00am 12.1 8.8 8.2 77 1.9 ESE 15 20 8 11 1018.5 1018.5 0.0
19/07:30am 9.9 7.2 7.3 84 1.2 SSE 11 15 6 8 1018.6 1018.6 0.0
19/07:00am 8.9 5.3 6.7 86 1.0 SE 15 17 8 9 1018.4 1018.4 0.0
19/06:30am 8.8 5.9 6.4 85 1.1 SE 11 15 6 8 1018.4 1018.4 0.0
19/06:00am 9.6 6.4 7.0 84 1.2 SSE 13 17 7 9 1018.2 1018.2 0.0
19/05:30am 9.8 7.1 7.2 84 1.2 SSE 11 15 6 8 1018.0 1018.0 0.0
19/05:00am 9.6 6.5 7.4 86 1.0 SSE 13 15 7 8 1017.7 1017.7 0.0
19/04:30am 9.7 6.7 7.5 86 1.0 SE 13 15 7 8 1017.7 1017.7 0.0
19/04:00am 9.0 6.2 6.8 86 1.0 SE 11 13 6 7 1017.7 1017.7 0.0
19/03:30am 9.6 6.4 6.7 82 1.4 ESE 13 15 7 8 1017.9 1017.9 0.0
19/03:00am 10.7 7.3 7.6 81 1.5 SE 15 15 8 8 1018.0 1018.0 0.0
19/02:30am 11.3 7.9 7.8 79 1.7 ESE 15 17 8 9 1018.0 1018.0 0.0
19/02:00am 12.0 8.7 7.9 76 2.0 ESE 15 15 8 8 1018.0 1018.0 0.0
19/01:30am 12.5 9.2 8.2 75 2.1 ESE 15 17 8 9 1018.1 1018.1 0.0
19/01:00am 11.9 8.9 7.8 76 2.0 SE 13 15 7 8 1018.3 1018.3 0.0
19/12:30am 12.1 9.1 7.8 75 2.1 SE 13 15 7 8 1018.4 1018.4 0.0
19/12:00am 12.8 9.8 7.7 71 2.5 SE 13 17 7 9 1018.6 1018.6 0.0
 
Date/Time
WST
Temp
°C
App
Temp
°C
Dew
Point
°C
Rel
Hum
%
Delta-T
°C
Wind Press
QNH
hPa
Press
MSL
hPa
Rain since
9am
mm
Dir  Spd
km/h
Gust
km/h
Spd
kts
Gust
kts
18/11:30pm 13.9 10.5 7.7 66 3.1 ESE 15 19 8 10 1018.8 1018.8 0.0
18/11:00pm 14.7 10.6 8.0 64 3.3 SE 19 22 10 12 1019.0 1019.0 0.0
18/10:30pm 14.8 11.1 8.1 64 3.4 SE 17 20 9 11 1019.2 1019.2 0.0
18/10:00pm 12.2 8.2 6.7 69 2.6 SE 17 19 9 10 1019.1 1019.1 0.0
18/09:30pm 12.8 9.6 8.3 74 2.2 SSE 15 17 8 9 1019.3 1019.3 0.0
18/09:00pm 13.6 10.7 8.0 69 2.8 S 13 15 7 8 1019.2 1019.2 0.0
18/08:30pm 14.3 11.0 8.0 66 3.1 S 15 17 8 9 1019.1 1019.1 0.0
18/08:00pm 15.1 11.6 7.4 60 3.8 S 15 17 8 9 1019.1 1019.1 0.0
18/07:30pm 14.9 10.9 6.5 57 4.1 S 17 19 9 10 1019.0 1019.0 0.0
18/07:00pm 15.6 11.1 4.3 47 5.2 S 17 19 9 10 1018.8 1018.8 0.0
18/06:30pm 16.7 12.5 3.7 42 6.0 SSE 15 15 8 8 1018.6 1018.6 0.0
18/06:00pm 17.4 13.4 2.6 37 6.7 SSE 13 13 7 7 1018.4 1018.4 0.0
18/05:30pm 20.0 16.3 2.4 31 8.2 SE 11 17 6 9 1018.2 1018.2 0.0
18/05:00pm 21.7 16.9 2.4 28 9.1 SE 17 22 9 12 1018.3 1018.3 0.0
18/04:30pm 22.4 17.9 2.0 26 9.6 ESE 15 20 8 11 1018.0 1018.0 0.0
18/04:00pm 22.9 17.9 1.3 24 10.0 E 17 24 9 13 1018.0 1018.0 0.0
18/03:30pm 23.4 18.5 1.7 24 10.2 ESE 17 26 9 14 1018.4 1018.4 0.0
18/03:00pm 23.5 18.3 2.4 25 10.0 ESE 19 24 10 13 1018.5 1018.5 0.0
18/02:30pm 23.6 18.5 3.0 26 9.9 E 19 28 10 15 1018.5 1018.5 0.0
18/02:00pm 23.6 18.6 3.5 27 9.8 E 19 24 10 13 1018.6 1018.6 0.0
18/01:30pm 23.0 18.6 4.5 30 9.1 ESE 17 26 9 14 1019.0 1019.0 0.0
18/01:00pm 22.3 16.8 3.9 30 8.9 ESE 22 32 12 17 1019.4 1019.4 0.0
18/12:30pm 21.6 15.8 4.2 32 8.5 E 24 30 13 16 1019.9 1019.9 0.0
18/12:00pm 21.1 16.0 4.2 33 8.2 E 20 28 11 15 1020.5 1020.5 0.0
18/11:30am 20.2 14.9 5.1 37 7.4 E 22 32 12 17 1020.9 1020.9 0.0
18/11:00am 19.5 14.7 5.6 40 6.8 E 20 28 11 15 1021.4 1021.4 0.0
18/10:30am 19.4 14.7 6.2 42 6.6 E 20 26 11 14 1021.8 1021.8 0.0
18/10:00am 18.6 13.5 6.1 44 6.2 E 22 30 12 16 1021.9 1021.9 0.0
18/09:30am 17.6 12.6 6.5 48 5.5 E 22 32 12 17 1021.9 1021.9 0.0
18/09:00am 16.9 12.5 7.5 54 4.7 ESE 20 28 11 15 1021.8 1021.8 0.0
18/08:30am 15.3 11.7 8.5 64 3.4 ESE 17 24 9 13 1021.8 1021.8 0.0
18/08:00am 12.9 9.7 8.4 74 2.2 ESE 15 19 8 10 1021.8 1021.8 0.0
18/07:30am 11.2 7.9 7.9 80 1.6 ESE 15 19 8 10 1021.5 1021.5 0.0
18/07:00am 10.9 7.5 7.8 81 1.5 ESE 15 19 8 10 1021.4 1021.4 0.0
18/06:30am 12.0 8.7 7.9 76 2.0 ESE 15 19 8 10 1021.2 1021.2 0.0
18/06:00am 12.1 8.6 8.6 79 1.7 ESE 17 20 9 11 1021.0 1021.0 0.0
18/05:30am 11.4 8.7 9.0 85 1.2 SE 13 19 7 10 1021.0 1021.0 0.0
18/05:00am 10.9 8.2 9.0 88 0.9 SE 13 17 7 9 1021.0 1021.0 0.0
18/04:30am 10.3 7.5 8.4 88 0.9 SE 13 15 7 8 1021.1 1021.1 0.0
18/04:00am 10.2 7.3 8.0 86 1.1 SE 13 15 7 8 1021.2 1021.2 0.0
18/03:30am 11.4 8.7 8.8 84 1.3 SE 13 15 7 8 1021.1 1021.1 0.0
18/03:00am 11.8 8.7 8.8 82 1.5 ESE 15 17 8 9 1021.2 1021.2 0.0
18/02:30am 12.7 9.3 9.0 78 1.9 SE 17 20 9 11 1021.4 1021.4 0.0
18/02:00am 11.9 8.6 9.5 85 1.2 SE 17 20 9 11 1021.5 1021.5 0.0
18/01:30am 9.9 6.5 7.7 86 1.1 SE 15 15 8 8 1021.8 1021.8 0.0
18/01:00am 11.2 8.2 7.9 80 1.6 SSE 13 15 7 8 1022.0 1022.0 0.0
18/12:30am 12.6 9.5 8.7 77 1.9 SE 15 19 8 10 1022.1 1022.1 0.0
18/12:00am 12.3 9.5 8.4 77 1.9 SE 13 17 7 9 1022.3 1022.3 0.0
 
Date/Time
WST
Temp
°C
App
Temp
°C
Dew
Point
°C
Rel
Hum
%
Delta-T
°C
Wind Press
QNH
hPa
Press
MSL
hPa
Rain since
9am
mm
Dir  Spd
km/h
Gust
km/h
Spd
kts
Gust
kts
17/11:30pm 12.0 9.0 7.9 76 2.0 SE 13 15 7 8 1022.5 1022.5 0.0
17/11:00pm 13.4 10.2 8.3 71 2.5 SE 15 17 8 9 1022.9 1022.8 0.0
17/10:30pm 14.2 10.6 8.2 67 3.0 SE 17 20 9 11 1022.7 1022.7 0.0
17/10:00pm 13.1 9.4 7.8 70 2.6 SE 17 19 9 10 1022.7 1022.7 0.0
17/09:30pm 11.9 8.8 7.2 73 2.3 SSE 13 15 7 8 1022.9 1022.8 0.0
17/09:00pm 12.9 10.1 7.1 68 2.8 SE 11 13 6 7 1022.9 1022.8 0.0
17/08:30pm 13.1 9.9 6.7 65 3.1 SSE 13 17 7 9 1022.5 1022.5 0.0
17/08:00pm 13.5 9.8 6.4 62 3.4 SSE 15 17 8 9 1022.2 1022.2 0.0
17/07:30pm 14.4 10.3 6.3 58 3.9 SSE 17 20 9 11 1022.1 1022.1 0.0
17/07:00pm 15.2 11.4 5.7 53 4.5 SSE 15 19 8 10 1021.9 1021.9 0.0
17/06:30pm 15.7 11.7 5.0 49 5.1 SSE 15 15 8 8 1021.4 1021.4 0.0
17/06:00pm 17.4 13.7 4.7 43 6.0 SSE 13 13 7 7 1021.4 1021.4 0.0
17/05:30pm 19.5 15.4 4.4 37 7.3 SSE 15 20 8 11 1021.6 1021.6 0.0
17/05:00pm 20.7 15.9 4.7 35 7.8 SE 19 26 10 14 1021.6 1021.6 0.0
17/04:30pm 21.2 16.7 4.3 33 8.2 SE 17 24 9 13 1021.7 1021.7 0.0
17/04:00pm 21.7 16.9 4.7 33 8.3 SE 19 32 10 17 1021.4 1021.4 0.0
17/03:30pm 21.8 16.9 5.3 34 8.2 ESE 20 32 11 17 1021.2 1021.2 0.0
17/03:00pm 21.8 16.9 5.3 34 8.2 SE 20 30 11 16 1021.2 1021.2 0.0
17/02:30pm 22.1 17.3 5.5 34 8.3 SE 20 30 11 16 1021.4 1021.4 0.0
17/02:00pm 21.5 16.7 5.4 35 8.0 ESE 20 28 11 15 1021.6 1021.6 0.0
17/01:30pm 21.0 15.9 6.2 38 7.4 ESE 22 33 12 18 1022.2 1022.2 0.0
17/01:00pm 20.9 15.9 6.4 39 7.3 ESE 22 32 12 17 1022.9 1022.8 0.0
17/12:30pm 20.0 13.9 6.7 42 6.7 ESE 28 35 15 19 1023.6 1023.5 0.0
17/12:00pm 19.8 14.1 6.9 43 6.5 ESE 26 37 14 20 1023.9 1023.8 0.0
17/11:30am 19.5 14.2 6.9 44 6.4 ESE 24 33 13 18 1024.3 1024.2 0.0
17/11:00am 19.1 13.4 6.9 45 6.1 E 26 37 14 20 1024.7 1024.6 0.0
17/10:30am 18.6 12.7 7.7 49 5.6 ESE 28 39 15 21 1025.2 1025.1 0.0
17/10:00am 18.1 12.3 8.1 52 5.1 E 28 39 15 21 1025.5 1025.4 0.0
17/09:30am 17.3 11.2 8.2 55 4.6 ESE 30 37 16 20 1025.5 1025.4 0.0
17/09:00am 16.7 11.9 8.9 60 4.0 ESE 24 35 13 19 1025.5 1025.4 0.0
17/08:30am 15.7 11.9 9.8 68 3.1 ESE 20 26 11 14 1025.4 1025.3 0.0
17/08:00am 13.2 10.8 10.2 82 1.5 ESE 13 17 7 9 1025.1 1025.0 0.0
17/07:30am 11.3 8.8 9.6 89 0.9 ESE 13 15 7 8 1024.7 1024.6 0.0
17/07:00am 10.9 8.3 9.3 90 0.8 SE 13 15 7 8 1024.4 1024.3 0.0
17/06:30am 11.0 8.0 9.3 89 0.9 SE 15 17 8 9 1024.1 1024.0 0.0
17/06:00am 11.3 8.3 9.2 87 1.0 ESE 15 17 8 9 1024.0 1023.9 0.0
17/05:30am 11.4 8.0 9.1 86 1.1 SE 17 20 9 11 1023.9 1023.8 0.0
17/05:00am 11.0 7.9 8.8 86 1.1 SE 15 17 8 9 1023.8 1023.7 0.0
17/04:30am 10.4 7.9 8.3 87 1.0 SE 11 15 6 8 1023.9 1023.8 0.0
17/04:00am 11.0 8.3 8.8 86 1.1 SE 13 17 7 9 1023.7 1023.6 0.0
17/03:30am 10.6 7.5 8.9 89 0.8 SE 15 17 8 9 1023.9 1023.8 0.0
17/03:00am 10.5 7.6 8.3 86 1.1 SSE 13 15 7 8 1024.2 1024.1 0.0
17/02:30am 11.2 8.0 8.4 83 1.4 SSE 15 19 8 10 1024.3 1024.2 0.0
17/02:00am 10.9 8.1 8.7 86 1.1 SSE 13 15 7 8 1024.2 1024.1 0.0
17/01:30am 11.3 8.6 8.9 85 1.2 SSE 13 17 7 9 1024.1 1024.0 0.0
17/01:00am 11.2 8.5 8.8 85 1.2 SSE 13 15 7 8 1023.9 1023.8 0.0
17/12:30am 10.5 7.9 7.9 84 1.3 SSE 11 13 6 7 1023.8 1023.7 0.0
17/12:00am 11.1 8.6 8.0 81 1.5 SSE 11 13 6 7 1024.0 1023.9 0.0
 
Date/Time
WST
Temp
°C
App
Temp
°C
Dew
Point
°C
Rel
Hum
%
Delta-T
°C
Wind Press
QNH
hPa
Press
MSL
hPa
Rain since
9am
mm
Dir  Spd
km/h
Gust
km/h
Spd
kts
Gust
kts
16/11:30pm 12.1 9.6 8.0 76 2.0 SE 11 13 6 7 1024.2 1024.1 0.0
16/11:00pm 13.2 10.3 8.3 72 2.4 SE 13 15 7 8 1024.2 1024.1 0.0
16/10:30pm 14.0 10.8 8.4 69 2.8 SE 15 19 8 10 1024.2 1024.1 0.0
16/10:00pm 14.3 11.1 8.5 68 2.9 SSE 15 19 8 10 1024.2 1024.1 0.0
16/09:30pm 14.9 11.4 8.6 66 3.2 SE 17 20 9 11 1024.3 1024.2 0.0
16/09:00pm 14.6 11.3 9.6 72 2.6 SSE 17 22 9 12 1024.2 1024.1 0.0
16/08:30pm 14.7 12.0 10.5 76 2.2 S 15 19 8 10 1024.2 1024.1 0.0
16/08:00pm 14.3 11.6 9.1 71 2.6 S 13 15 7 8 1024.0 1023.9 0.0
16/07:30pm 14.6 11.8 8.5 67 3.1 S 13 15 7 8 1023.8 1023.7 0.0
16/07:00pm 14.6 11.6 7.9 64 3.3 SSE 13 13 7 7 1023.5 1023.4 0.0
16/06:30pm 15.7 12.5 7.0 56 4.3 SSE 13 17 7 9 1023.2 1023.1 0.0
16/06:00pm 16.8 13.9 6.6 51 5.0 SSE 11 11 6 6 1023.0 1022.9 0.0
16/05:30pm 19.4 15.8 5.1 39 7.0 SE 13 17 7 9 1022.7 1022.7 0.0

Other formats

Comma delimited format used in spreadsheet applications
http://www.bom.gov.au/fwo/IDW60801/IDW60801.95402.axf

JavaScript Object Notation format (JSON) in row-major order
http://www.bom.gov.au/fwo/IDW60801/IDW60801.95402.json

Data quality

Most of these data are generated automatically and are frequently updated. Quality checks on data are not normally performed. It is possible for incorrect values to appear. Refer to information at About Latest Weather Observations and please check the disclaimer before using these data.